createdAt,value
2019-03-22T00:00:40.695Z,1028.38
2019-03-22T00:01:40.733Z,1028.38
2019-03-22T00:02:40.758Z,1028.39
2019-03-22T00:03:40.787Z,1028.35
2019-03-22T00:04:40.817Z,1028.40
2019-03-22T00:05:40.850Z,1028.43
2019-03-22T00:06:40.879Z,1028.39
2019-03-22T00:07:40.916Z,1028.39
2019-03-22T00:08:40.942Z,1028.40
2019-03-22T00:09:40.973Z,1028.36
2019-03-22T00:10:41.004Z,1028.38
2019-03-22T00:11:41.035Z,1028.36
2019-03-22T00:12:41.067Z,1028.30
2019-03-22T00:13:41.099Z,1028.34
2019-03-22T00:14:41.128Z,1028.36
2019-03-22T00:15:41.160Z,1028.38
2019-03-22T00:16:41.193Z,1028.44
2019-03-22T00:17:41.222Z,1028.39
2019-03-22T00:18:41.256Z,1028.38
2019-03-22T00:19:41.284Z,1028.40
2019-03-22T00:20:41.316Z,1028.39
2019-03-22T00:21:41.346Z,1028.38
2019-03-22T00:22:41.389Z,1028.35
2019-03-22T00:23:41.417Z,1028.37
2019-03-22T00:24:41.439Z,1028.35
2019-03-22T00:25:41.471Z,1028.38
2019-03-22T00:26:41.501Z,1028.41
2019-03-22T00:27:41.534Z,1028.43
2019-03-22T00:28:41.564Z,1028.41
2019-03-22T00:29:41.596Z,1028.40
2019-03-22T00:30:41.626Z,1028.38
2019-03-22T00:31:41.656Z,1028.38
2019-03-22T00:32:41.697Z,1028.37
2019-03-22T00:33:41.720Z,1028.36
2019-03-22T00:34:41.754Z,1028.33
2019-03-22T00:35:41.781Z,1028.30
2019-03-22T00:36:41.812Z,1028.31
2019-03-22T00:37:41.847Z,1028.34
2019-03-22T00:38:41.875Z,1028.28
2019-03-22T00:39:41.906Z,1028.30
2019-03-22T00:40:41.941Z,1028.29
2019-03-22T00:41:41.968Z,1028.28
2019-03-22T00:42:41.998Z,1028.28
2019-03-22T00:43:42.032Z,1028.28
2019-03-22T00:44:42.061Z,1028.25
2019-03-22T00:45:42.092Z,1028.26
2019-03-22T00:46:42.128Z,1028.24
2019-03-22T00:47:42.154Z,1028.29
2019-03-22T00:48:42.190Z,1028.30
2019-03-22T00:49:42.219Z,1028.30
2019-03-22T00:50:42.247Z,1028.27
2019-03-22T00:51:42.278Z,1028.32
2019-03-22T00:52:42.311Z,1028.28
2019-03-22T00:53:42.341Z,1028.26
2019-03-22T00:54:42.373Z,1028.25
2019-03-22T00:55:42.403Z,1028.22
2019-03-22T00:56:42.437Z,1028.18
2019-03-22T00:57:42.464Z,1028.14
2019-03-22T00:58:42.496Z,1028.14
2019-03-22T00:59:42.531Z,1028.12
2019-03-22T01:00:42.564Z,1028.08
2019-03-22T01:01:42.593Z,1028.05
2019-03-22T01:02:42.620Z,1028.06
2019-03-22T01:03:42.656Z,1028.01
2019-03-22T01:04:42.691Z,1028.06
2019-03-22T01:05:42.715Z,1028.04
2019-03-22T01:06:42.746Z,1028.06
2019-03-22T01:07:42.777Z,1028.09
2019-03-22T01:08:42.807Z,1028.09
2019-03-22T01:09:42.840Z,1028.11
2019-03-22T01:10:42.871Z,1028.10
2019-03-22T01:11:42.901Z,1028.12
2019-03-22T01:12:42.938Z,1028.14
2019-03-22T01:13:42.963Z,1028.15
2019-03-22T01:14:42.994Z,1028.14
2019-03-22T01:15:43.027Z,1028.13
2019-03-22T01:16:43.057Z,1028.11
2019-03-22T01:17:43.089Z,1028.06
2019-03-22T01:18:43.121Z,1028.03
2019-03-22T01:19:43.151Z,1028.02
2019-03-22T01:20:43.182Z,1028.03
2019-03-22T01:21:43.213Z,1028.05
2019-03-22T01:22:43.243Z,1028.05
2019-03-22T01:23:43.275Z,1028.08
2019-03-22T01:24:43.351Z,1028.05
2019-03-22T01:25:43.348Z,1028.01
2019-03-22T01:26:43.368Z,1028.04
2019-03-22T01:27:43.403Z,1028.05
2019-03-22T01:28:43.434Z,1028.04
2019-03-22T01:29:43.464Z,1028.05
2019-03-22T01:30:43.492Z,1028.02
2019-03-22T01:31:43.523Z,1028.01
2019-03-22T01:32:43.556Z,1027.98
2019-03-22T01:33:43.587Z,1027.97
2019-03-22T01:34:43.618Z,1027.97
2019-03-22T01:35:43.653Z,1027.98
2019-03-22T01:36:43.680Z,1027.98
2019-03-22T01:37:43.712Z,1027.97
2019-03-22T01:38:43.742Z,1028.01
2019-03-22T01:39:43.772Z,1028.04
2019-03-22T01:40:43.805Z,1028.00
2019-03-22T01:41:43.839Z,1027.99
2019-03-22T01:42:43.867Z,1028.01
2019-03-22T01:43:43.898Z,1027.99
2019-03-22T01:44:43.929Z,1027.98
2019-03-22T01:45:43.960Z,1027.96
2019-03-22T01:46:43.993Z,1027.92
2019-03-22T01:47:44.025Z,1027.92
2019-03-22T01:48:44.056Z,1027.91
2019-03-22T01:49:44.085Z,1027.85
2019-03-22T01:50:44.118Z,1027.87
2019-03-22T01:51:44.147Z,1027.82
2019-03-22T01:52:44.179Z,1027.82
2019-03-22T01:53:44.209Z,1027.82
2019-03-22T01:54:44.279Z,1027.77
2019-03-22T01:55:44.272Z,1027.78
2019-03-22T01:56:44.302Z,1027.79
2019-03-22T01:57:53.130Z,1027.80
2019-03-22T01:58:44.365Z,1027.81
2019-03-22T01:59:44.396Z,1027.81
2019-03-22T02:00:44.428Z,1027.85
2019-03-22T02:01:44.458Z,1027.84
2019-03-22T02:02:44.489Z,1027.88
2019-03-22T02:03:44.529Z,1027.90
2019-03-22T02:04:44.556Z,1027.91
2019-03-22T02:05:44.583Z,1027.89
2019-03-22T02:06:44.612Z,1027.92
2019-03-22T02:07:44.645Z,1027.91
2019-03-22T02:08:44.676Z,1027.94
2019-03-22T02:09:44.706Z,1027.93
2019-03-22T02:10:44.737Z,1027.90
2019-03-22T02:11:44.770Z,1027.91
2019-03-22T02:12:44.801Z,1027.88
2019-03-22T02:13:44.832Z,1027.86
2019-03-22T02:14:44.862Z,1027.85
2019-03-22T02:15:44.896Z,1027.86
2019-03-22T02:16:44.925Z,1027.82
2019-03-22T02:17:44.959Z,1027.85
2019-03-22T02:18:44.986Z,1027.82
2019-03-22T02:19:45.018Z,1027.88
2019-03-22T02:20:45.050Z,1027.86
2019-03-22T02:21:45.082Z,1027.92
2019-03-22T02:22:45.112Z,1027.90
2019-03-22T02:23:45.142Z,1027.95
2019-03-22T02:24:45.174Z,1027.92
2019-03-22T02:25:45.207Z,1027.90
2019-03-22T02:26:45.242Z,1027.87
2019-03-22T02:27:45.270Z,1027.92
2019-03-22T02:28:45.299Z,1027.93
2019-03-22T02:29:45.330Z,1027.94
2019-03-22T02:30:45.362Z,1027.95
2019-03-22T02:31:45.392Z,1027.98
2019-03-22T02:32:45.431Z,1027.99
2019-03-22T02:33:45.455Z,1027.99
2019-03-22T02:34:45.518Z,1028.00
2019-03-22T02:35:45.519Z,1027.97
2019-03-22T02:36:45.550Z,1027.96
2019-03-22T02:37:45.583Z,1027.98
2019-03-22T02:38:45.616Z,1028.00
2019-03-22T02:39:45.820Z,1027.97
2019-03-22T02:40:45.682Z,1027.98
2019-03-22T02:41:45.709Z,1027.93
2019-03-22T02:42:45.748Z,1027.96
2019-03-22T02:43:45.770Z,1027.95
2019-03-22T02:44:45.805Z,1027.92
2019-03-22T02:45:45.838Z,1027.98
2019-03-22T02:46:45.860Z,1028.01
2019-03-22T02:47:45.892Z,1028.00
2019-03-22T02:48:45.926Z,1028.01
2019-03-22T02:49:45.954Z,1027.99
2019-03-22T02:50:45.988Z,1027.96
2019-03-22T02:51:46.023Z,1027.97
2019-03-22T02:52:46.068Z,1028.00
2019-03-22T02:53:46.081Z,1028.02
2019-03-22T02:54:46.110Z,1028.03
2019-03-22T02:55:46.165Z,1028.04
2019-03-22T02:56:46.180Z,1028.03
2019-03-22T02:57:46.206Z,1028.05
2019-03-22T02:58:46.237Z,1028.04
2019-03-22T02:59:46.267Z,1028.06
2019-03-22T03:00:46.305Z,1028.05
2019-03-22T03:01:46.329Z,1028.08
2019-03-22T03:02:46.373Z,1028.09
2019-03-22T03:03:46.395Z,1028.08
2019-03-22T03:04:46.424Z,1028.07
2019-03-22T03:05:46.457Z,1028.10
2019-03-22T03:06:46.495Z,1028.10
2019-03-22T03:07:46.541Z,1028.14
2019-03-22T03:08:46.549Z,1028.13
2019-03-22T03:09:46.596Z,1028.21
2019-03-22T03:10:46.616Z,1028.20
2019-03-22T03:11:46.646Z,1028.25
2019-03-22T03:12:46.680Z,1028.25
2019-03-22T03:13:46.707Z,1028.24
2019-03-22T03:14:46.736Z,1028.24
2019-03-22T03:15:46.768Z,1028.22
2019-03-22T03:16:46.799Z,1028.27
2019-03-22T03:17:46.856Z,1028.27
2019-03-22T03:18:46.871Z,1028.27
2019-03-22T03:19:46.892Z,1028.27
2019-03-22T03:20:46.925Z,1028.29
2019-03-22T03:21:46.957Z,1028.25
2019-03-22T03:22:46.988Z,1028.26
2019-03-22T03:23:47.019Z,1028.29
2019-03-22T03:24:47.057Z,1028.34
2019-03-22T03:25:47.082Z,1028.38
2019-03-22T03:26:47.113Z,1028.38
2019-03-22T03:27:47.146Z,1028.42
2019-03-22T03:28:47.175Z,1028.43
2019-03-22T03:29:47.212Z,1028.36
2019-03-22T03:30:47.241Z,1028.40
2019-03-22T03:31:47.285Z,1028.40
2019-03-22T03:32:47.329Z,1028.40
2019-03-22T03:33:47.341Z,1028.40
2019-03-22T03:34:47.364Z,1028.43
2019-03-22T03:35:47.397Z,1028.45
2019-03-22T03:36:47.432Z,1028.46
2019-03-22T03:37:47.477Z,1028.46
2019-03-22T03:38:47.489Z,1028.51
2019-03-22T03:39:47.521Z,1028.50
2019-03-22T03:40:47.551Z,1028.49
2019-03-22T03:41:47.583Z,1028.52
2019-03-22T03:42:47.633Z,1028.54
2019-03-22T03:43:47.650Z,1028.56
2019-03-22T03:44:47.681Z,1028.56
2019-03-22T03:45:47.718Z,1028.58
2019-03-22T03:46:47.743Z,1028.61
2019-03-22T03:47:47.777Z,1028.58
2019-03-22T03:48:47.805Z,1028.61
2019-03-22T03:49:47.835Z,1028.58
2019-03-22T03:50:47.865Z,1028.55
2019-03-22T03:51:47.896Z,1028.52
2019-03-22T03:52:47.945Z,1028.51
2019-03-22T03:53:47.973Z,1028.52
2019-03-22T03:54:47.990Z,1028.52
2019-03-22T03:55:48.024Z,1028.57
2019-03-22T03:56:48.067Z,1028.58
2019-03-22T03:57:48.087Z,1028.62
2019-03-22T03:58:52.505Z,1028.66
2019-03-22T03:59:48.149Z,1028.65
2019-03-22T04:00:48.181Z,1028.63
2019-03-22T04:01:48.211Z,1028.65
2019-03-22T04:02:48.243Z,1028.68
2019-03-22T04:03:48.275Z,1028.67
2019-03-22T04:04:48.306Z,1028.68
2019-03-22T04:05:48.346Z,1028.64
2019-03-22T04:06:48.369Z,1028.73
2019-03-22T04:07:48.398Z,1028.69
2019-03-22T04:08:48.432Z,1028.68
2019-03-22T04:09:48.463Z,1028.67
2019-03-22T04:10:48.494Z,1028.67
2019-03-22T04:11:48.528Z,1028.66
2019-03-22T04:12:48.557Z,1028.68
2019-03-22T04:13:48.589Z,1028.67
2019-03-22T04:14:48.618Z,1028.66
2019-03-22T04:15:48.651Z,1028.65
2019-03-22T04:16:48.692Z,1028.71
2019-03-22T04:17:48.725Z,1028.76
2019-03-22T04:18:48.745Z,1028.73
2019-03-22T04:19:48.778Z,1028.78
2019-03-22T04:20:48.809Z,1028.75
2019-03-22T04:21:48.841Z,1028.71
2019-03-22T04:22:48.878Z,1028.70
2019-03-22T04:23:48.903Z,1028.65
2019-03-22T04:24:48.935Z,1028.66
2019-03-22T04:25:48.965Z,1028.58
2019-03-22T04:26:49.018Z,1028.57
2019-03-22T04:27:49.031Z,1028.53
2019-03-22T04:28:49.061Z,1028.56
2019-03-22T04:29:49.095Z,1028.58
2019-03-22T04:30:49.122Z,1028.62
2019-03-22T04:31:49.154Z,1028.66
2019-03-22T04:32:49.185Z,1028.63
2019-03-22T04:33:49.224Z,1028.63
2019-03-22T04:34:49.248Z,1028.63
2019-03-22T04:35:49.286Z,1028.58
2019-03-22T04:36:49.312Z,1028.56
2019-03-22T04:37:49.344Z,1028.53
2019-03-22T04:38:49.375Z,1028.50
2019-03-22T04:39:49.405Z,1028.51
2019-03-22T04:40:49.439Z,1028.55
2019-03-22T04:41:49.471Z,1028.54
2019-03-22T04:42:49.500Z,1028.55
2019-03-22T04:43:49.534Z,1028.56
2019-03-22T04:44:49.563Z,1028.57
2019-03-22T04:45:49.599Z,1028.61
2019-03-22T04:46:49.627Z,1028.63
2019-03-22T04:47:49.667Z,1028.62
2019-03-22T04:48:49.693Z,1028.62
2019-03-22T04:49:49.722Z,1028.70
2019-03-22T04:50:49.759Z,1028.68
2019-03-22T04:51:49.785Z,1028.70
2019-03-22T04:52:49.816Z,1028.75
2019-03-22T04:53:49.846Z,1028.71
2019-03-22T04:54:49.877Z,1028.72
2019-03-22T04:55:49.909Z,1028.73
2019-03-22T04:56:49.941Z,1028.73
2019-03-22T04:57:49.973Z,1028.75
2019-03-22T04:58:50.005Z,1028.73
2019-03-22T04:59:50.036Z,1028.69
2019-03-22T05:00:50.068Z,1028.72
2019-03-22T05:01:50.101Z,1028.74
2019-03-22T05:02:50.132Z,1028.73
2019-03-22T05:03:50.165Z,1028.75
2019-03-22T05:04:50.197Z,1028.77
2019-03-22T05:05:50.259Z,1028.80
2019-03-22T05:06:50.266Z,1028.81
2019-03-22T05:07:50.288Z,1028.82
2019-03-22T05:08:50.324Z,1028.86
2019-03-22T05:09:50.351Z,1028.87
2019-03-22T05:10:50.382Z,1028.88
2019-03-22T05:11:50.416Z,1028.88
2019-03-22T05:12:50.447Z,1028.85
2019-03-22T05:13:50.487Z,1028.87
2019-03-22T05:14:50.511Z,1028.89
2019-03-22T05:15:50.540Z,1028.86
2019-03-22T05:16:50.571Z,1028.85
2019-03-22T05:17:50.604Z,1028.86
2019-03-22T05:18:50.636Z,1028.92
2019-03-22T05:19:50.683Z,1028.98
2019-03-22T05:20:50.698Z,1028.98
2019-03-22T05:21:50.731Z,1029.01
2019-03-22T05:22:50.763Z,1029.05
2019-03-22T05:23:50.792Z,1029.05
2019-03-22T05:24:50.826Z,1029.05
2019-03-22T05:25:50.857Z,1029.09
2019-03-22T05:26:50.887Z,1029.07
2019-03-22T05:27:50.919Z,1029.07
2019-03-22T05:28:50.953Z,1029.09
2019-03-22T05:29:50.984Z,1029.07
2019-03-22T05:30:51.014Z,1029.08
2019-03-22T05:31:51.045Z,1029.09
2019-03-22T05:32:51.077Z,1029.03
2019-03-22T05:33:51.111Z,1029.02
2019-03-22T05:34:51.152Z,1029.02
2019-03-22T05:35:51.173Z,1028.99
2019-03-22T05:36:51.206Z,1029.02
2019-03-22T05:37:51.237Z,1029.03
2019-03-22T05:38:51.268Z,1029.02
2019-03-22T05:39:51.299Z,1029.04
2019-03-22T05:40:51.329Z,1029.03
2019-03-22T05:41:51.362Z,1029.04
2019-03-22T05:42:51.393Z,1028.98
2019-03-22T05:43:51.425Z,1028.99
2019-03-22T05:44:51.457Z,1028.97
2019-03-22T05:45:51.489Z,1028.94
2019-03-22T05:46:51.520Z,1028.98
2019-03-22T05:47:51.551Z,1028.96
2019-03-22T05:48:51.583Z,1028.94
2019-03-22T05:49:51.615Z,1028.99
2019-03-22T05:50:51.646Z,1028.93
2019-03-22T05:51:51.678Z,1028.94
2019-03-22T05:52:52.803Z,1028.95
2019-03-22T05:53:51.743Z,1028.93
2019-03-22T05:54:51.772Z,1028.96
2019-03-22T05:55:51.805Z,1028.99
2019-03-22T05:56:51.836Z,1029.00
2019-03-22T05:57:51.868Z,1029.04
2019-03-22T05:58:51.899Z,1029.10
2019-03-22T05:59:51.931Z,1029.15
2019-03-22T06:00:51.963Z,1029.18
2019-03-22T06:01:51.995Z,1029.20
2019-03-22T06:02:52.029Z,1029.22
2019-03-22T06:03:52.060Z,1029.22
2019-03-22T06:04:52.138Z,1029.22
2019-03-22T06:05:52.122Z,1029.23
2019-03-22T06:06:52.153Z,1029.19
2019-03-22T06:07:52.184Z,1029.16
2019-03-22T06:08:52.217Z,1029.20
2019-03-22T06:09:52.291Z,1029.15
2019-03-22T06:10:52.279Z,1029.14
2019-03-22T06:11:52.312Z,1029.16
2019-03-22T06:12:52.344Z,1029.17
2019-03-22T06:13:52.376Z,1029.18
2019-03-22T06:14:52.404Z,1029.19
2019-03-22T06:15:52.438Z,1029.21
2019-03-22T06:16:52.469Z,1029.24
2019-03-22T06:17:52.501Z,1029.26
2019-03-22T06:18:52.533Z,1029.23
2019-03-22T06:19:52.564Z,1029.33
2019-03-22T06:20:52.596Z,1029.28
2019-03-22T06:21:52.628Z,1029.29
2019-03-22T06:22:52.659Z,1029.28
2019-03-22T06:23:52.691Z,1029.31
2019-03-22T06:24:52.723Z,1029.29
2019-03-22T06:25:52.758Z,1029.28
2019-03-22T06:26:52.788Z,1029.26
2019-03-22T06:27:52.820Z,1029.25
2019-03-22T06:28:52.851Z,1029.26
2019-03-22T06:29:54.456Z,1029.25
2019-03-22T06:30:52.915Z,1029.24
2019-03-22T06:31:52.946Z,1029.27
2019-03-22T06:32:52.976Z,1029.25
2019-03-22T06:33:53.009Z,1029.26
2019-03-22T06:34:53.040Z,1029.27
2019-03-22T06:35:53.074Z,1029.34
2019-03-22T06:36:53.103Z,1029.39
2019-03-22T06:37:53.136Z,1029.42
2019-03-22T06:38:53.169Z,1029.47
2019-03-22T06:39:53.203Z,1029.43
2019-03-22T06:40:53.235Z,1029.48
2019-03-22T06:41:53.263Z,1029.44
2019-03-22T06:42:53.293Z,1029.47
2019-03-22T06:43:53.325Z,1029.49
2019-03-22T06:44:53.358Z,1029.44
2019-03-22T06:45:53.389Z,1029.47
2019-03-22T06:46:53.421Z,1029.47
2019-03-22T06:47:53.611Z,1029.51
2019-03-22T06:48:53.485Z,1029.54
2019-03-22T06:49:53.531Z,1029.58
2019-03-22T06:50:53.553Z,1029.56
2019-03-22T06:51:53.588Z,1029.58
2019-03-22T06:52:53.611Z,1029.55
2019-03-22T06:53:53.644Z,1029.58
2019-03-22T06:54:53.675Z,1029.52
2019-03-22T06:55:53.710Z,1029.51
2019-03-22T06:56:53.738Z,1029.52
2019-03-22T06:57:53.771Z,1029.48
2019-03-22T06:58:53.802Z,1029.50
2019-03-22T07:00:05.489Z,1029.51
2019-03-22T07:00:53.866Z,1029.49
2019-03-22T07:01:53.908Z,1029.50
2019-03-22T07:02:53.929Z,1029.57
2019-03-22T07:03:53.961Z,1029.57
2019-03-22T07:04:53.993Z,1029.62
2019-03-22T07:05:54.027Z,1029.62
2019-03-22T07:06:54.057Z,1029.59
2019-03-22T07:07:54.088Z,1029.56
2019-03-22T07:08:54.120Z,1029.58
2019-03-22T07:09:54.153Z,1029.52
2019-03-22T07:10:54.186Z,1029.55
2019-03-22T07:11:54.216Z,1029.53
2019-03-22T07:12:54.249Z,1029.55
2019-03-22T07:13:54.280Z,1029.59
2019-03-22T07:14:54.311Z,1029.55
2019-03-22T07:15:54.346Z,1029.56
2019-03-22T07:16:54.375Z,1029.58
2019-03-22T07:17:54.410Z,1029.58
2019-03-22T07:18:54.441Z,1029.66
2019-03-22T07:19:54.472Z,1029.67
2019-03-22T07:20:54.503Z,1029.69
2019-03-22T07:21:54.535Z,1029.72
2019-03-22T07:22:54.567Z,1029.69
2019-03-22T07:23:54.598Z,1029.70
2019-03-22T07:24:54.638Z,1029.66
2019-03-22T07:25:54.669Z,1029.64
2019-03-22T07:26:54.696Z,1029.63
2019-03-22T07:27:54.727Z,1029.59
2019-03-22T07:28:54.760Z,1029.60
2019-03-22T07:29:54.791Z,1029.62
2019-03-22T07:30:54.821Z,1029.61
2019-03-22T07:31:54.854Z,1029.67
2019-03-22T07:32:54.891Z,1029.67
2019-03-22T07:33:54.919Z,1029.66
2019-03-22T07:34:54.949Z,1029.64
2019-03-22T07:35:54.982Z,1029.59
2019-03-22T07:36:55.014Z,1029.62
2019-03-22T07:37:55.047Z,1029.60
2019-03-22T07:38:55.076Z,1029.59
2019-03-22T07:39:55.108Z,1029.60
2019-03-22T07:40:55.146Z,1029.64
2019-03-22T07:41:55.174Z,1029.62
2019-03-22T07:42:55.205Z,1029.65
2019-03-22T07:43:55.237Z,1029.60
2019-03-22T07:44:55.268Z,1029.56
2019-03-22T07:45:55.301Z,1029.54
2019-03-22T07:46:55.333Z,1029.57
2019-03-22T07:47:55.971Z,1029.58
2019-03-22T07:48:55.397Z,1029.55
2019-03-22T07:49:55.428Z,1029.59
2019-03-22T07:50:55.460Z,1029.58
2019-03-22T07:51:55.493Z,1029.55
2019-03-22T07:52:55.524Z,1029.56
2019-03-22T07:53:55.555Z,1029.53
2019-03-22T07:54:55.587Z,1029.49
2019-03-22T07:55:55.620Z,1029.48
2019-03-22T07:56:55.652Z,1029.47
2019-03-22T07:57:55.688Z,1029.47
2019-03-22T07:58:55.717Z,1029.47
2019-03-22T07:59:55.747Z,1029.50
2019-03-22T08:00:55.779Z,1029.48
2019-03-22T08:01:55.811Z,1029.52
2019-03-22T08:02:55.843Z,1029.55
2019-03-22T08:03:55.875Z,1029.52
2019-03-22T08:04:55.907Z,1029.57
2019-03-22T08:05:55.943Z,1029.59
2019-03-22T08:06:55.970Z,1029.60
2019-03-22T08:07:56.284Z,1029.60
2019-03-22T08:08:56.038Z,1029.55
2019-03-22T08:09:56.124Z,1029.52
2019-03-22T08:10:56.133Z,1029.52
2019-03-22T08:11:56.131Z,1029.51
2019-03-22T08:12:56.202Z,1029.48
2019-03-22T08:13:56.196Z,1029.50
2019-03-22T08:14:56.249Z,1029.49
2019-03-22T08:15:57.618Z,1029.49
2019-03-22T08:16:56.348Z,1029.48
2019-03-22T08:17:57.283Z,1029.47
2019-03-22T08:18:56.390Z,1029.46
2019-03-22T08:19:57.338Z,1029.44
2019-03-22T08:20:56.419Z,1029.42
2019-03-22T08:21:56.450Z,1029.41
2019-03-22T08:22:56.482Z,1029.39
2019-03-22T08:23:56.537Z,1029.40
2019-03-22T08:24:56.550Z,1029.39
2019-03-22T08:25:56.596Z,1029.42
2019-03-22T08:26:56.611Z,1029.44
2019-03-22T08:27:56.643Z,1029.43
2019-03-22T08:28:56.675Z,1029.42
2019-03-22T08:29:56.708Z,1029.48
2019-03-22T08:30:56.750Z,1029.48
2019-03-22T08:31:56.804Z,1029.48
2019-03-22T08:32:56.855Z,1029.52
2019-03-22T08:33:56.836Z,1029.50
2019-03-22T08:34:56.892Z,1029.54
2019-03-22T08:35:56.903Z,1029.51
2019-03-22T08:36:56.933Z,1029.52
2019-03-22T08:37:56.991Z,1029.51
2019-03-22T08:38:57.033Z,1029.56
2019-03-22T08:39:57.031Z,1029.56
2019-03-22T08:40:57.059Z,1029.54
2019-03-22T08:41:57.093Z,1029.58
2019-03-22T08:42:57.133Z,1029.60
2019-03-22T08:43:57.167Z,1029.62
2019-03-22T08:44:57.193Z,1029.59
2019-03-22T08:45:57.252Z,1029.61
2019-03-22T08:46:57.275Z,1029.59
2019-03-22T08:47:57.293Z,1029.64
2019-03-22T08:48:57.358Z,1029.62
2019-03-22T08:49:57.355Z,1029.67
2019-03-22T08:50:57.382Z,1029.64
2019-03-22T08:51:57.415Z,1029.67
2019-03-22T08:52:57.448Z,1029.64
2019-03-22T08:53:57.483Z,1029.64
2019-03-22T08:54:57.551Z,1029.63
2019-03-22T08:55:57.545Z,1029.66
2019-03-22T08:56:57.575Z,1029.65
2019-03-22T08:57:57.643Z,1029.64
2019-03-22T08:58:57.661Z,1029.67
2019-03-22T08:59:57.702Z,1029.67
2019-03-22T09:00:58.279Z,1029.70
2019-03-22T09:01:57.740Z,1029.70
2019-03-22T09:02:57.794Z,1029.71
2019-03-22T09:03:57.814Z,1029.73
2019-03-22T09:04:57.862Z,1029.70
2019-03-22T09:05:57.879Z,1029.73
2019-03-22T09:06:59.126Z,1029.70
2019-03-22T09:07:57.975Z,1029.67
2019-03-22T09:08:57.968Z,1029.67
2019-03-22T09:09:57.998Z,1029.62
2019-03-22T09:10:58.045Z,1029.61
2019-03-22T09:11:58.065Z,1029.59
2019-03-22T09:12:58.095Z,1029.58
2019-03-22T09:13:58.127Z,1029.59
2019-03-22T09:14:58.158Z,1029.58
2019-03-22T09:15:58.193Z,1029.56
2019-03-22T09:16:58.225Z,1029.58
2019-03-22T09:17:58.303Z,1029.58
2019-03-22T09:18:58.287Z,1029.56
2019-03-22T09:19:58.321Z,1029.55
2019-03-22T09:20:58.356Z,1029.53
2019-03-22T09:21:59.631Z,1029.50
2019-03-22T09:22:58.474Z,1029.48
2019-03-22T09:23:58.450Z,1029.49
2019-03-22T09:24:58.483Z,1029.50
2019-03-22T09:25:58.567Z,1029.50
2019-03-22T09:26:58.547Z,1029.49
2019-03-22T09:27:58.580Z,1029.48
2019-03-22T09:28:58.612Z,1029.44
2019-03-22T09:29:58.659Z,1029.46
2019-03-22T09:31:09.784Z,1029.46
2019-03-22T09:31:58.716Z,1029.47
2019-03-22T09:32:58.747Z,1029.47
2019-03-22T09:33:58.795Z,1029.50
2019-03-22T09:34:59.864Z,1029.50
2019-03-22T09:35:58.957Z,1029.51
2019-03-22T09:36:58.912Z,1029.51
2019-03-22T09:38:12.060Z,1029.52
2019-03-22T09:38:58.936Z,1029.54
2019-03-22T09:39:58.978Z,1029.50
2019-03-22T09:40:59.003Z,1029.56
2019-03-22T09:41:59.079Z,1029.54
2019-03-22T09:42:59.115Z,1029.54
2019-03-22T09:43:59.134Z,1029.53
2019-03-22T09:44:59.151Z,1029.52
2019-03-22T09:45:59.165Z,1029.54
2019-03-22T09:46:59.199Z,1029.53
2019-03-22T09:47:59.228Z,1029.54
2019-03-22T09:48:59.264Z,1029.55
2019-03-22T09:49:59.329Z,1029.52
2019-03-22T09:50:59.357Z,1029.50
2019-03-22T09:51:59.436Z,1029.45
2019-03-22T09:52:59.391Z,1029.44
2019-03-22T09:53:59.424Z,1029.41
2019-03-22T09:55:12.113Z,1029.43
2019-03-22T09:55:59.487Z,1029.41
2019-03-22T09:56:59.524Z,1029.42
2019-03-22T09:57:59.553Z,1029.40
2019-03-22T09:58:59.585Z,1029.41
2019-03-22T09:59:59.617Z,1029.40
2019-03-22T10:00:59.683Z,1029.39
2019-03-22T10:01:59.736Z,1029.39
2019-03-22T10:02:59.726Z,1029.41
2019-03-22T10:03:59.757Z,1029.45
2019-03-22T10:04:59.782Z,1029.41
2019-03-22T10:05:59.842Z,1029.41
2019-03-22T10:06:59.892Z,1029.38
2019-03-22T10:07:59.879Z,1029.40
2019-03-22T10:09:02.790Z,1029.37
2019-03-22T10:09:59.943Z,1029.38
2019-03-22T10:10:59.975Z,1029.39
2019-03-22T10:12:00.073Z,1029.40
2019-03-22T10:13:00.131Z,1029.38
2019-03-22T10:14:00.121Z,1029.42
2019-03-22T10:15:00.394Z,1029.44
2019-03-22T10:16:00.139Z,1029.41
2019-03-22T10:17:00.227Z,1029.40
2019-03-22T10:18:00.222Z,1029.39
2019-03-22T10:19:00.232Z,1029.40
2019-03-22T10:20:00.344Z,1029.42
2019-03-22T10:21:00.299Z,1029.41
2019-03-22T10:22:00.330Z,1029.40
2019-03-22T10:23:00.364Z,1029.39
2019-03-22T10:24:00.396Z,1029.40
2019-03-22T10:25:00.494Z,1029.38
2019-03-22T10:26:00.557Z,1029.40
2019-03-22T10:27:00.506Z,1029.40
2019-03-22T10:28:00.527Z,1029.37
2019-03-22T10:29:00.577Z,1029.39
2019-03-22T10:30:00.635Z,1029.37
2019-03-22T10:31:00.623Z,1029.35
2019-03-22T10:32:00.706Z,1029.36
2019-03-22T10:33:00.741Z,1029.31
2019-03-22T10:34:00.737Z,1029.32
2019-03-22T10:35:00.783Z,1029.32
2019-03-22T10:36:00.835Z,1029.32
2019-03-22T10:37:00.846Z,1029.31
2019-03-22T10:38:02.292Z,1029.31
2019-03-22T10:39:01.016Z,1029.29
2019-03-22T10:40:00.955Z,1029.28
2019-03-22T10:41:00.974Z,1029.22
2019-03-22T10:42:01.016Z,1029.23
2019-03-22T10:43:01.061Z,1029.22
2019-03-22T10:44:01.057Z,1029.21
2019-03-22T10:45:01.125Z,1029.22
2019-03-22T10:46:01.123Z,1029.24
2019-03-22T10:47:01.145Z,1029.26
2019-03-22T10:48:01.202Z,1029.26
2019-03-22T10:49:01.272Z,1029.31
2019-03-22T10:50:01.240Z,1029.27
2019-03-22T10:51:01.276Z,1029.32
2019-03-22T10:52:04.443Z,1029.29
2019-03-22T10:53:01.338Z,1029.28
2019-03-22T10:54:01.431Z,1029.26
2019-03-22T10:55:17.470Z,1029.22
2019-03-22T10:56:01.436Z,1029.21
2019-03-22T10:57:01.471Z,1029.24
2019-03-22T10:58:01.500Z,1029.21
2019-03-22T10:59:01.532Z,1029.24
2019-03-22T11:00:01.573Z,1029.26
2019-03-22T11:01:01.598Z,1029.28
2019-03-22T11:02:03.690Z,1029.25
2019-03-22T11:03:01.664Z,1029.23
2019-03-22T11:04:01.856Z,1029.18
2019-03-22T11:05:02.302Z,1029.15
2019-03-22T11:06:01.761Z,1029.14
2019-03-22T11:07:01.793Z,1029.10
2019-03-22T11:08:01.827Z,1029.10
2019-03-22T11:09:01.858Z,1029.12
2019-03-22T11:10:01.895Z,1029.12
2019-03-22T11:11:01.922Z,1029.09
2019-03-22T11:12:11.752Z,1029.09
2019-03-22T11:13:01.990Z,1029.10
2019-03-22T11:14:02.021Z,1029.09
2019-03-22T11:15:02.056Z,1029.07
2019-03-22T11:16:02.086Z,1029.05
2019-03-22T11:17:02.117Z,1029.05
2019-03-22T11:18:02.152Z,1029.04
2019-03-22T11:19:02.188Z,1029.04
2019-03-22T11:20:02.216Z,1029.03
2019-03-22T11:21:05.442Z,1029.03
2019-03-22T11:22:02.284Z,1029.01
2019-03-22T11:23:02.313Z,1028.97
2019-03-22T11:24:02.348Z,1028.92
2019-03-22T11:25:02.381Z,1028.94
2019-03-22T11:26:04.318Z,1028.90
2019-03-22T11:27:02.444Z,1028.89
2019-03-22T11:28:02.478Z,1028.88
2019-03-22T11:29:02.510Z,1028.90
2019-03-22T11:30:02.545Z,1028.84
2019-03-22T11:31:04.951Z,1028.78
2019-03-22T11:32:12.061Z,1028.77
2019-03-22T11:33:02.643Z,1028.74
2019-03-22T11:34:02.682Z,1028.73
2019-03-22T11:35:02.706Z,1028.76
2019-03-22T11:36:02.739Z,1028.74
2019-03-22T11:37:02.769Z,1028.70
2019-03-22T11:38:02.805Z,1028.71
2019-03-22T11:39:02.839Z,1028.68
2019-03-22T11:40:02.867Z,1028.70
2019-03-22T11:41:02.902Z,1028.73
2019-03-22T11:42:02.933Z,1028.66
2019-03-22T11:43:08.525Z,1028.68
2019-03-22T11:44:02.998Z,1028.67
2019-03-22T11:45:03.032Z,1028.70
2019-03-22T11:46:03.065Z,1028.72
2019-03-22T11:47:03.098Z,1028.68
2019-03-22T11:48:03.148Z,1028.66
2019-03-22T11:49:03.165Z,1028.68
2019-03-22T11:50:03.195Z,1028.63
2019-03-22T11:51:03.227Z,1028.66
2019-03-22T11:52:03.260Z,1028.70
2019-03-22T11:53:03.296Z,1028.64
2019-03-22T11:54:03.324Z,1028.63
2019-03-22T11:55:03.356Z,1028.65
2019-03-22T11:56:03.390Z,1028.62
2019-03-22T11:57:03.425Z,1028.61
2019-03-22T11:58:03.457Z,1028.63
2019-03-22T11:59:03.486Z,1028.59
2019-03-22T12:00:03.520Z,1028.59
2019-03-22T12:01:03.552Z,1028.55
2019-03-22T12:02:03.585Z,1028.56
2019-03-22T12:03:03.618Z,1028.56
2019-03-22T12:04:03.649Z,1028.58
2019-03-22T12:05:03.682Z,1028.53
2019-03-22T12:06:03.714Z,1028.53